Terminal Aerodrome Forecast
Issued by NWS

Home | Current Version | Previous Version | Text Only | Print | Product List | Glossary On
Versions: 1 2 3 4 5 6 7 8 9 10 11 12 13 14 15 16 17 18 19 20 21 22 23 24 25 26 27 28
000
FTUS46 KSEW 281505 AAC
TAFSEA
TAF AMD
KSEA 281505Z 2815/2918 19010KT P6SM BKN022 OVC045
     FM282200 23008KT P6SM SCT035 BKN060
     FM290400 03004KT P6SM SCT060 BKN100
     FM291400 15006KT P6SM -RA BKN035 OVC060=

USA.gov is the U.S. government's official web portal to all federal, state and local government web resources and services.